sensor_id;sensor_type;location;lat;lon;timestamp;pressure;altitude;pressure_sealevel;temperature;humidity
64503;BME280;50971;51.940;21.258;2022-11-12T00:02:50;101985.83;;;10.39;100.00
64503;BME280;50971;51.940;21.258;2022-11-12T00:13:11;101987.92;;;10.32;100.00
64503;BME280;50971;51.940;21.258;2022-11-12T00:23:32;101995.39;;;10.18;100.00
64503;BME280;50971;51.940;21.258;2022-11-12T00:33:52;101997.64;;;10.23;100.00
64503;BME280;50971;51.940;21.258;2022-11-12T00:44:14;102001.30;;;10.34;100.00
64503;BME280;50971;51.940;21.258;2022-11-12T00:54:35;102000.98;;;10.29;100.00
64503;BME280;50971;51.940;21.258;2022-11-12T01:04:55;101999.96;;;10.16;100.00
64503;BME280;50971;51.940;21.258;2022-11-12T01:15:16;101990.63;;;10.22;100.00
64503;BME280;50971;51.940;21.258;2022-11-12T01:25:37;101983.92;;;10.31;100.00
64503;BME280;50971;51.940;21.258;2022-11-12T01:35:58;101989.47;;;10.27;100.00
64503;BME280;50971;51.940;21.258;2022-11-12T01:46:25;101995.54;;;10.16;100.00
64503;BME280;50971;51.940;21.258;2022-11-12T01:56:48;101993.95;;;10.21;100.00
64503;BME280;50971;51.940;21.258;2022-11-12T02:07:10;101994.71;;;10.33;100.00
64503;BME280;50971;51.940;21.258;2022-11-12T02:17:32;102003.61;;;10.31;100.00
64503;BME280;50971;51.940;21.258;2022-11-12T02:27:53;101998.85;;;10.20;100.00
64503;BME280;50971;51.940;21.258;2022-11-12T02:38:15;102004.98;;;10.24;100.00
64503;BME280;50971;51.940;21.258;2022-11-12T02:48:36;102007.96;;;10.35;100.00
64503;BME280;50971;51.940;21.258;2022-11-12T02:58:56;102014.11;;;10.30;100.00
64503;BME280;50971;51.940;21.258;2022-11-12T03:09:17;102010.14;;;10.16;100.00
64503;BME280;50971;51.940;21.258;2022-11-12T03:19:37;102014.63;;;10.20;100.00
64503;BME280;50971;51.940;21.258;2022-11-12T03:29:58;102024.54;;;10.32;100.00
64503;BME280;50971;51.940;21.258;2022-11-12T03:40:19;102027.66;;;10.26;100.00
64503;BME280;50971;51.940;21.258;2022-11-12T03:50:40;102025.28;;;10.14;100.00
64503;BME280;50971;51.940;21.258;2022-11-12T04:01:01;102024.16;;;10.18;100.00
64503;BME280;50971;51.940;21.258;2022-11-12T04:11:21;102030.01;;;10.26;100.00
64503;BME280;50971;51.940;21.258;2022-11-12T04:21:47;102027.44;;;10.21;100.00
64503;BME280;50971;51.940;21.258;2022-11-12T04:32:14;102021.63;;;10.09;100.00
64503;BME280;50971;51.940;21.258;2022-11-12T04:42:35;102014.99;;;10.14;100.00
64503;BME280;50971;51.940;21.258;2022-11-12T04:53:14;102009.58;;;10.23;100.00
64503;BME280;50971;51.940;21.258;2022-11-12T05:03:35;102010.10;;;10.16;100.00
64503;BME280;50971;51.940;21.258;2022-11-12T05:13:55;102007.77;;;10.01;100.00
64503;BME280;50971;51.940;21.258;2022-11-12T05:24:16;102003.30;;;10.03;100.00
64503;BME280;50971;51.940;21.258;2022-11-12T05:34:57;102008.76;;;10.15;100.00
64503;BME280;50971;51.940;21.258;2022-11-12T05:45:18;102007.77;;;10.08;100.00
64503;BME280;50971;51.940;21.258;2022-11-12T05:55:39;102016.19;;;9.95;100.00
64503;BME280;50971;51.940;21.258;2022-11-12T06:06:00;102032.10;;;9.99;100.00
64503;BME280;50971;51.940;21.258;2022-11-12T06:16:20;102037.59;;;10.07;100.00
64503;BME280;50971;51.940;21.258;2022-11-12T06:26:41;102050.16;;;10.00;100.00
64503;BME280;50971;51.940;21.258;2022-11-12T06:37:01;102056.45;;;9.84;100.00
64503;BME280;50971;51.940;21.258;2022-11-12T06:47:22;102063.14;;;9.85;100.00
64503;BME280;50971;51.940;21.258;2022-11-12T06:57:43;102065.85;;;9.77;100.00
64503;BME280;50971;51.940;21.258;2022-11-12T07:08:04;102069.90;;;9.69;100.00
64503;BME280;50971;51.940;21.258;2022-11-12T07:18:26;102066.21;;;9.76;100.00
64503;BME280;50971;51.940;21.258;2022-11-12T07:28:49;102077.79;;;9.89;100.00
64503;BME280;50971;51.940;21.258;2022-11-12T07:39:10;102090.23;;;9.83;100.00
64503;BME280;50971;51.940;21.258;2022-11-12T07:49:32;102097.20;;;9.70;100.00
64503;BME280;50971;51.940;21.258;2022-11-12T07:59:53;102094.91;;;9.60;100.00
64503;BME280;50971;51.940;21.258;2022-11-12T08:10:13;102099.21;;;9.69;100.00
64503;BME280;50971;51.940;21.258;2022-11-12T08:20:34;102109.48;;;9.82;100.00
64503;BME280;50971;51.940;21.258;2022-11-12T08:30:55;102112.20;;;9.81;100.00
64503;BME280;50971;51.940;21.258;2022-11-12T08:41:16;102101.84;;;9.75;100.00
64503;BME280;50971;51.940;21.258;2022-11-12T08:51:37;102109.27;;;9.68;100.00
64503;BME280;50971;51.940;21.258;2022-11-12T09:01:57;102117.80;;;9.73;100.00
64503;BME280;50971;51.940;21.258;2022-11-12T09:12:18;102132.00;;;9.86;100.00
64503;BME280;50971;51.940;21.258;2022-11-12T09:22:39;102145.71;;;9.80;100.00
64503;BME280;50971;51.940;21.258;2022-11-12T09:33:00;102150.99;;;9.65;100.00
64503;BME280;50971;51.940;21.258;2022-11-12T09:43:26;102146.86;;;9.37;100.00
64503;BME280;50971;51.940;21.258;2022-11-12T09:54:11;102154.46;;;9.42;100.00
64503;BME280;50971;51.940;21.258;2022-11-12T10:25:59;102169.91;;;9.53;100.00
64503;BME280;50971;51.940;21.258;2022-11-12T10:36:28;102170.03;;;9.42;100.00
64503;BME280;50971;51.940;21.258;2022-11-12T10:46:50;102161.92;;;9.48;100.00
64503;BME280;50971;51.940;21.258;2022-11-12T10:57:23;102162.88;;;9.67;100.00
64503;BME280;50971;51.940;21.258;2022-11-12T11:07:48;102164.56;;;9.70;100.00
64503;BME280;50971;51.940;21.258;2022-11-12T11:18:10;102175.39;;;9.58;100.00
64503;BME280;50971;51.940;21.258;2022-11-12T11:28:40;102176.06;;;9.43;100.00
64503;BME280;50971;51.940;21.258;2022-11-12T11:50:06;102173.70;;;9.75;100.00
64503;BME280;50971;51.940;21.258;2022-11-12T12:22:13;102174.02;;;9.45;100.00
64503;BME280;50971;51.940;21.258;2022-11-12T12:33:08;102170.13;;;9.49;100.00
64503;BME280;50971;51.940;21.258;2022-11-12T12:44:24;102164.30;;;9.62;100.00
64503;BME280;50971;51.940;21.258;2022-11-12T13:04:56;102159.17;;;9.31;100.00
64503;BME280;50971;51.940;21.258;2022-11-12T13:15:41;102162.94;;;9.18;100.00
64503;BME280;50971;51.940;21.258;2022-11-12T13:37:03;102162.27;;;9.38;100.00
64503;BME280;50971;51.940;21.258;2022-11-12T13:47:24;102161.05;;;9.32;100.00
64503;BME280;50971;51.940;21.258;2022-11-12T13:57:52;102168.80;;;9.13;100.00
64503;BME280;50971;51.940;21.258;2022-11-12T14:08:39;102163.13;;;8.96;100.00
64503;BME280;50971;51.940;21.258;2022-11-12T14:19:28;102162.80;;;8.96;100.00
64503;BME280;50971;51.940;21.258;2022-11-12T14:40:31;102166.18;;;8.99;100.00
64503;BME280;50971;51.940;21.258;2022-11-12T14:51:02;102171.07;;;8.90;100.00
64503;BME280;50971;51.940;21.258;2022-11-12T15:01:28;102168.27;;;8.96;100.00
64503;BME280;50971;51.940;21.258;2022-11-12T15:12:19;102169.17;;;9.12;100.00
64503;BME280;50971;51.940;21.258;2022-11-12T15:22:48;102172.93;;;9.14;100.00
64503;BME280;50971;51.940;21.258;2022-11-12T15:43:34;102177.14;;;8.94;100.00
64503;BME280;50971;51.940;21.258;2022-11-12T15:53:55;102184.98;;;9.03;100.00
64503;BME280;50971;51.940;21.258;2022-11-12T16:04:16;102203.81;;;9.16;100.00
64503;BME280;50971;51.940;21.258;2022-11-12T16:14:38;102212.46;;;9.14;100.00
64503;BME280;50971;51.940;21.258;2022-11-12T16:24:59;102216.02;;;9.03;100.00
64503;BME280;50971;51.940;21.258;2022-11-12T16:35:20;102218.10;;;9.07;100.00
64503;BME280;50971;51.940;21.258;2022-11-12T16:45:41;102226.60;;;9.16;100.00
64503;BME280;50971;51.940;21.258;2022-11-12T16:56:03;102227.55;;;9.11;100.00
64503;BME280;50971;51.940;21.258;2022-11-12T17:06:35;102235.70;;;9.01;100.00
64503;BME280;50971;51.940;21.258;2022-11-12T17:16:56;102240.02;;;9.05;100.00
64503;BME280;50971;51.940;21.258;2022-11-12T17:27:17;102239.08;;;9.14;100.00
64503;BME280;50971;51.940;21.258;2022-11-12T17:37:37;102239.10;;;9.05;100.00
64503;BME280;50971;51.940;21.258;2022-11-12T17:47:58;102241.08;;;8.90;100.00
64503;BME280;50971;51.940;21.258;2022-11-12T17:58:19;102230.29;;;8.95;100.00
64503;BME280;50971;51.940;21.258;2022-11-12T18:08:40;102226.13;;;9.07;100.00
64503;BME280;50971;51.940;21.258;2022-11-12T18:19:01;102229.70;;;9.02;100.00
64503;BME280;50971;51.940;21.258;2022-11-12T18:29:22;102232.58;;;8.91;100.00
64503;BME280;50971;51.940;21.258;2022-11-12T18:39:42;102224.91;;;8.97;100.00
64503;BME280;50971;51.940;21.258;2022-11-12T18:50:04;102225.20;;;9.07;100.00
64503;BME280;50971;51.940;21.258;2022-11-12T19:00:28;102228.89;;;9.00;100.00
64503;BME280;50971;51.940;21.258;2022-11-12T19:11:03;102232.73;;;8.88;100.00
64503;BME280;50971;51.940;21.258;2022-11-12T19:21:26;102239.77;;;8.94;100.00
64503;BME280;50971;51.940;21.258;2022-11-12T19:31:47;102242.64;;;9.04;100.00
64503;BME280;50971;51.940;21.258;2022-11-12T19:42:08;102237.50;;;9.09;100.00
64503;BME280;50971;51.940;21.258;2022-11-12T19:52:29;102232.98;;;9.00;100.00
64503;BME280;50971;51.940;21.258;2022-11-12T20:02:50;102228.02;;;8.83;100.00
64503;BME280;50971;51.940;21.258;2022-11-12T20:13:11;102232.96;;;8.82;100.00
64503;BME280;50971;51.940;21.258;2022-11-12T20:23:32;102238.94;;;8.95;100.00
64503;BME280;50971;51.940;21.258;2022-11-12T20:33:54;102247.18;;;9.12;100.00
64503;BME280;50971;51.940;21.258;2022-11-12T20:44:16;102252.55;;;9.04;100.00
64503;BME280;50971;51.940;21.258;2022-11-12T20:54:37;102258.00;;;8.92;100.00
64503;BME280;50971;51.940;21.258;2022-11-12T21:04:57;102256.33;;;9.00;100.00
64503;BME280;50971;51.940;21.258;2022-11-12T21:15:18;102262.09;;;9.12;100.00
64503;BME280;50971;51.940;21.258;2022-11-12T21:25:39;102252.38;;;9.23;100.00
64503;BME280;50971;51.940;21.258;2022-11-12T21:36:02;102260.24;;;9.16;100.00
64503;BME280;50971;51.940;21.258;2022-11-12T21:46:26;102261.23;;;9.00;100.00
64503;BME280;50971;51.940;21.258;2022-11-12T21:56:47;102264.60;;;9.05;100.00
64503;BME280;50971;51.940;21.258;2022-11-12T22:07:08;102265.91;;;9.16;100.00
64503;BME280;50971;51.940;21.258;2022-11-12T22:17:31;102260.52;;;9.20;100.00
64503;BME280;50971;51.940;21.258;2022-11-12T22:27:52;102256.41;;;9.09;100.00
64503;BME280;50971;51.940;21.258;2022-11-12T22:38:13;102251.50;;;8.90;100.00
64503;BME280;50971;51.940;21.258;2022-11-12T22:48:33;102243.55;;;8.69;100.00
64503;BME280;50971;51.940;21.258;2022-11-12T22:58:54;102246.27;;;8.74;100.00
64503;BME280;50971;51.940;21.258;2022-11-12T23:09:15;102237.20;;;8.84;100.00
64503;BME280;50971;51.940;21.258;2022-11-12T23:19:36;102238.02;;;8.99;100.00
64503;BME280;50971;51.940;21.258;2022-11-12T23:29:56;102238.20;;;8.94;100.00
64503;BME280;50971;51.940;21.258;2022-11-12T23:40:17;102246.02;;;8.86;100.00
64503;BME280;50971;51.940;21.258;2022-11-12T23:50:38;102237.67;;;8.96;100.00
